Time;durP1;ratioP1;P1;durP2;ratioP2;P2;SDS_P1;SDS_P2;PMS_P1;PMS_P2;Temp;Humidity;BMP_temperature;BMP_pressure;BME280_temperature;BME280_humidity;BME280_pressure;Samples;Min_cycle;Max_cycle;Signal;HPM_P1;HPM_P2
2023/08/06 00:04:20;;;;;;;7.03;3.17;;;;;;;;;;10553932;27;20405;-77
2023/08/06 00:09:24;;;;;;;4.78;2.47;;;;;;;;;;10555890;28;20557;-76
2023/08/06 00:14:27;;;;;;;4.32;2.42;;;;;;;;;;10569860;28;20032;-77
2023/08/06 00:19:30;;;;;;;7.47;3.53;;;;;;;;;;10565435;28;20135;-75
2023/08/06 00:24:34;;;;;;;6.77;3.80;;;;;;;;;;10561301;28;20040;-75
2023/08/06 00:29:37;;;;;;;7.07;3.92;;;;;;;;;;10550424;28;20134;-75
2023/08/06 00:34:40;;;;;;;6.15;3.63;;;;;;;;;;10561799;28;20049;-76
2023/08/06 00:39:43;;;;;;;5.28;3.08;;;;;;;;;;10557388;28;20053;-75
2023/08/06 00:44:46;;;;;;;5.95;2.92;;;;;;;;;;10560184;28;20482;-76
2023/08/06 00:49:49;;;;;;;6.03;2.85;;;;;;;;;;10562507;28;20044;-76
2023/08/06 00:54:53;;;;;;;5.95;2.50;;;;;;;;;;10566768;28;20130;-75
2023/08/06 00:59:56;;;;;;;7.32;3.00;;;;;;;;;;10570372;27;20063;-76
2023/08/06 01:04:58;;;;;;;5.68;2.90;;;;;;;;;;10568892;27;20502;-76
2023/08/06 01:10:14;;;;;;;7.13;3.03;;;;;;;;;;10568730;27;20054;-74
2023/08/06 01:15:19;;;;;;;6.47;3.08;;;;;;;;;;10579147;27;20039;-74
2023/08/06 01:20:22;;;;;;;6.75;2.88;;;;;;;;;;10575090;27;20491;-76
2023/08/06 01:25:30;;;;;;;5.85;3.08;;;;;;;;;;10565162;27;20048;-75
2023/08/06 01:30:35;;;;;;;5.85;3.08;;;;;;;;;;10566448;27;20063;-75
2023/08/06 01:35:39;;;;;;;6.15;3.08;;;;;;;;;;10560686;27;20068;-75
2023/08/06 01:40:43;;;;;;;5.38;2.53;;;;;;;;;;10563952;27;20044;-76
2023/08/06 01:45:45;;;;;;;10.35;4.00;;;;;;;;;;10560129;27;20082;-75
2023/08/06 01:50:48;;;;;;;6.93;2.72;;;;;;;;;;10569965;27;20035;-76
2023/08/06 01:55:52;;;;;;;7.13;3.13;;;;;;;;;;10566218;27;20043;-75
2023/08/06 02:00:55;;;;;;;5.35;2.63;;;;;;;;;;10567801;27;20123;-76
2023/08/06 02:05:57;;;;;;;5.28;2.67;;;;;;;;;;10548773;27;20044;-74
2023/08/06 02:11:02;;;;;;;7.25;3.08;;;;;;;;;;10556386;27;20059;-75
2023/08/06 02:16:07;;;;;;;5.28;3.22;;;;;;;;;;10566340;27;20047;-76
2023/08/06 02:21:10;;;;;;;4.30;2.63;;;;;;;;;;10543933;27;20557;-76
2023/08/06 02:26:14;;;;;;;5.33;2.47;;;;;;;;;;10553411;27;20035;-75
2023/08/06 02:31:17;;;;;;;4.00;2.15;;;;;;;;;;10556397;27;20040;-76
2023/08/06 02:36:19;;;;;;;4.00;1.67;;;;;;;;;;10559120;27;20114;-76
2023/08/06 02:41:23;;;;;;;2.53;1.65;;;;;;;;;;10559712;27;20054;-78
2023/08/06 02:46:26;;;;;;;6.20;2.65;;;;;;;;;;10564520;27;20076;-76
2023/08/06 02:51:28;;;;;;;5.00;2.20;;;;;;;;;;10566612;27;20048;-75
2023/08/06 02:56:33;;;;;;;2.97;2.00;;;;;;;;;;10559939;27;22502;-75
2023/08/06 03:01:36;;;;;;;2.70;1.58;;;;;;;;;;10554632;27;20562;-76
2023/08/06 03:06:39;;;;;;;3.73;2.50;;;;;;;;;;10557700;27;20050;-76
2023/08/06 03:11:43;;;;;;;2.67;1.53;;;;;;;;;;10556852;27;20052;-76
2023/08/06 03:16:46;;;;;;;4.05;2.50;;;;;;;;;;10561912;27;20035;-76
2023/08/06 03:21:48;;;;;;;5.18;2.10;;;;;;;;;;10558232;27;20230;-76
2023/08/06 03:26:53;;;;;;;2.85;1.70;;;;;;;;;;10553785;27;20040;-76
2023/08/06 03:31:55;;;;;;;1.98;1.25;;;;;;;;;;10564612;27;20031;-76
2023/08/06 03:36:58;;;;;;;3.75;1.88;;;;;;;;;;10561992;27;20494;-76
2023/08/06 03:42:02;;;;;;;6.13;2.50;;;;;;;;;;10558474;27;20031;-76
2023/08/06 03:47:05;;;;;;;3.60;1.70;;;;;;;;;;10561081;27;20036;-77
2023/08/06 03:52:08;;;;;;;4.20;1.65;;;;;;;;;;10539703;27;20045;-76
2023/08/06 03:57:13;;;;;;;5.15;2.47;;;;;;;;;;10560341;27;20486;-75
2023/08/06 04:02:15;;;;;;;3.67;1.63;;;;;;;;;;10561338;27;20125;-76
2023/08/06 04:07:18;;;;;;;4.03;2.10;;;;;;;;;;10561324;27;20032;-76
2023/08/06 04:12:22;;;;;;;2.75;1.50;;;;;;;;;;10557269;28;20032;-76
2023/08/06 04:17:25;;;;;;;2.78;2.00;;;;;;;;;;10554486;28;20383;-75
2023/08/06 04:22:28;;;;;;;2.07;1.50;;;;;;;;;;10559646;28;20074;-75
2023/08/06 04:27:32;;;;;;;3.22;2.10;;;;;;;;;;10561815;28;20046;-76
2023/08/06 04:32:34;;;;;;;;;;;;;;;;;;10565636;27;20040;-75
2023/08/06 04:37:37;;;;;;;3.42;1.92;;;;;;;;;;10564770;27;19924;-76
2023/08/06 04:42:42;;;;;;;5.27;2.20;;;;;;;;;;10568676;27;20059;-76
2023/08/06 04:47:45;;;;;;;2.88;1.38;;;;;;;;;;10566676;27;20031;-76
2023/08/06 04:52:48;;;;;;;4.50;2.00;;;;;;;;;;10565920;27;20138;-76
2023/08/06 04:57:52;;;;;;;3.87;2.00;;;;;;;;;;10563371;27;20792;-76
2023/08/06 05:02:55;;;;;;;2.58;1.92;;;;;;;;;;10564011;27;20438;-76
2023/08/06 05:07:58;;;;;;;2.60;1.80;;;;;;;;;;10558805;27;20127;-76
2023/08/06 05:13:02;;;;;;;4.28;2.13;;;;;;;;;;10561054;27;20032;-76
2023/08/06 05:18:04;;;;;;;4.28;1.48;;;;;;;;;;10567475;27;20060;-76
2023/08/06 05:23:08;;;;;;;3.20;1.83;;;;;;;;;;10564956;27;20158;-75
2023/08/06 05:28:14;;;;;;;1.65;1.35;;;;;;;;;;10564834;27;20114;-75
2023/08/06 05:33:17;;;;;;;4.25;1.65;;;;;;;;;;10574268;27;20161;-75
2023/08/06 05:38:20;;;;;;;2.27;1.60;;;;;;;;;;10563476;27;20050;-75
2023/08/06 05:43:24;;;;;;;5.77;1.80;;;;;;;;;;10559550;27;20031;-76
2023/08/06 05:48:27;;;;;;;2.65;1.55;;;;;;;;;;10574798;27;20123;-75
2023/08/06 05:53:30;;;;;;;2.58;1.65;;;;;;;;;;10562768;27;20052;-76
2023/08/06 05:58:34;;;;;;;2.22;1.70;;;;;;;;;;10562909;27;20042;-76
2023/08/06 06:03:37;;;;;;;2.88;1.60;;;;;;;;;;10559256;27;20048;-77
2023/08/06 06:08:39;;;;;;;1.93;1.30;;;;;;;;;;10571961;27;20199;-76
2023/08/06 06:13:43;;;;;;;3.03;1.60;;;;;;;;;;10570909;27;20039;-75
2023/08/06 06:18:46;;;;;;;2.97;1.48;;;;;;;;;;10584414;27;20703;-75
2023/08/06 06:23:49;;;;;;;3.17;1.60;;;;;;;;;;10566699;27;20410;-75
2023/08/06 06:28:53;;;;;;;6.30;1.20;;;;;;;;;;10554937;27;20027;-75
2023/08/06 06:33:55;;;;;;;3.28;1.40;;;;;;;;;;10567352;27;20118;-76
2023/08/06 06:38:58;;;;;;;4.78;1.48;;;;;;;;;;10560837;27;20043;-76
2023/08/06 06:44:02;;;;;;;0.93;0.87;;;;;;;;;;10561947;27;20484;-76
2023/08/06 06:49:05;;;;;;;1.75;1.15;;;;;;;;;;10563415;27;20047;-75
2023/08/06 06:54:07;;;;;;;0.73;0.73;;;;;;;;;;10568153;27;20031;-76
2023/08/06 06:59:11;;;;;;;1.02;0.90;;;;;;;;;;10565065;27;20043;-75
2023/08/06 07:04:14;;;;;;;2.80;1.10;;;;;;;;;;10558807;27;20134;-75
2023/08/06 07:09:16;;;;;;;1.67;1.15;;;;;;;;;;10564019;27;20050;-75
2023/08/06 07:14:20;;;;;;;1.57;0.90;;;;;;;;;;10562122;27;20346;-75
2023/08/06 07:19:23;;;;;;;3.75;1.00;;;;;;;;;;10562539;27;20042;-75
2023/08/06 07:24:25;;;;;;;0.90;0.67;;;;;;;;;;10560724;27;20494;-75
2023/08/06 07:29:29;;;;;;;0.73;0.50;;;;;;;;;;10563553;27;20039;-76
2023/08/06 07:34:32;;;;;;;0.52;0.52;;;;;;;;;;10562231;27;20070;-76
2023/08/06 07:39:35;;;;;;;1.13;0.50;;;;;;;;;;10556722;27;20042;-76
2023/08/06 07:44:38;;;;;;;2.77;0.80;;;;;;;;;;10559662;27;20035;-76
2023/08/06 07:49:42;;;;;;;1.15;0.40;;;;;;;;;;10568236;27;20046;-76
2023/08/06 07:54:45;;;;;;;1.10;0.40;;;;;;;;;;10564379;27;20073;-76
2023/08/06 07:59:50;;;;;;;2.27;0.90;;;;;;;;;;10562181;27;20462;-75
2023/08/06 08:04:53;;;;;;;1.20;0.80;;;;;;;;;;10556380;28;20031;-75
2023/08/06 08:09:55;;;;;;;2.27;1.20;;;;;;;;;;10559973;27;20211;-76
2023/08/06 08:14:59;;;;;;;1.70;1.20;;;;;;;;;;10556335;28;20036;-76
2023/08/06 08:20:03;;;;;;;2.08;1.10;;;;;;;;;;10561079;28;20123;-76
2023/08/06 08:25:06;;;;;;;1.15;0.80;;;;;;;;;;10558542;28;20520;-76
2023/08/06 08:30:11;;;;;;;1.15;0.85;;;;;;;;;;10559512;28;20042;-76
2023/08/06 08:35:14;;;;;;;0.88;0.75;;;;;;;;;;10560475;28;20050;-76
2023/08/06 08:40:17;;;;;;;1.17;0.90;;;;;;;;;;10563258;28;20047;-76
2023/08/06 08:45:21;;;;;;;0.30;0.30;;;;;;;;;;10555067;28;20589;-77
2023/08/06 08:50:24;;;;;;;0.47;0.40;;;;;;;;;;10562721;28;20044;-76
2023/08/06 08:55:26;;;;;;;0.30;0.30;;;;;;;;;;10565888;28;20498;-77
2023/08/06 09:00:30;;;;;;;0.60;0.40;;;;;;;;;;10562942;28;20042;-76
2023/08/06 09:05:34;;;;;;;0.75;0.40;;;;;;;;;;10557377;28;20058;-76
2023/08/06 09:10:36;;;;;;;;;;;;;;;;;;10552549;28;20112;-75
2023/08/06 09:15:41;;;;;;;0.43;0.43;;;;;;;;;;10559086;28;19919;-76
2023/08/06 09:20:43;;;;;;;0.68;0.30;;;;;;;;;;10554169;27;20527;-75
2023/08/06 09:25:46;;;;;;;1.70;0.30;;;;;;;;;;10563860;27;20044;-76
2023/08/06 09:30:50;;;;;;;1.77;0.50;;;;;;;;;;10567028;27;20378;-76
2023/08/06 09:35:54;;;;;;;0.20;0.20;;;;;;;;;;10562224;27;20118;-76
2023/08/06 09:40:57;;;;;;;0.57;0.30;;;;;;;;;;10567411;27;20569;-76
2023/08/06 09:46:01;;;;;;;0.33;0.30;;;;;;;;;;10577504;27;20653;-75
2023/08/06 09:51:04;;;;;;;2.40;0.47;;;;;;;;;;10571488;27;20070;-76
2023/08/06 09:56:06;;;;;;;1.50;0.30;;;;;;;;;;10562818;27;20335;-76
2023/08/06 10:01:11;;;;;;;0.23;0.23;;;;;;;;;;10569277;27;20055;-76
2023/08/06 10:06:14;;;;;;;1.80;0.40;;;;;;;;;;10571021;27;20039;-76
2023/08/06 10:11:18;;;;;;;0.10;0.10;;;;;;;;;;10578791;27;20067;-75
2023/08/06 10:16:22;;;;;;;0.63;0.22;;;;;;;;;;10573771;27;20126;-76
2023/08/06 10:21:27;;;;;;;0.43;0.30;;;;;;;;;;10581129;27;20041;-73
2023/08/06 10:26:31;;;;;;;0.85;0.85;;;;;;;;;;10569567;27;20126;-74
2023/08/06 10:31:53;;;;;;;0.55;0.30;;;;;;;;;;10575089;27;20493;-76
2023/08/06 10:36:58;;;;;;;0.73;0.20;;;;;;;;;;10574957;27;20081;-77
2023/08/06 10:42:02;;;;;;;1.63;0.28;;;;;;;;;;10577166;27;20044;-74
2023/08/06 10:47:19;;;;;;;0.30;0.30;;;;;;;;;;10573548;27;20474;-75
2023/08/06 10:52:23;;;;;;;0.40;0.40;;;;;;;;;;10581002;27;20086;-76
2023/08/06 10:57:26;;;;;;;1.33;0.40;;;;;;;;;;10576788;27;20047;-76
2023/08/06 11:02:29;;;;;;;0.50;0.50;;;;;;;;;;10573379;27;20044;-76
2023/08/06 11:07:33;;;;;;;0.20;0.20;;;;;;;;;;10578193;27;20039;-75
2023/08/06 11:12:36;;;;;;;0.17;0.10;;;;;;;;;;10567012;27;20064;-77
2023/08/06 11:17:40;;;;;;;0.63;0.20;;;;;;;;;;10560077;27;20126;-76
2023/08/06 11:22:44;;;;;;;1.33;0.20;;;;;;;;;;10566661;27;20075;-76
2023/08/06 11:27:47;;;;;;;0.30;0.20;;;;;;;;;;10564649;27;20110;-76
2023/08/06 11:32:50;;;;;;;1.45;0.38;;;;;;;;;;10559699;27;20051;-76
2023/08/06 11:37:54;;;;;;;0.52;0.30;;;;;;;;;;10559159;27;20160;-75
2023/08/06 11:42:58;;;;;;;0.20;0.20;;;;;;;;;;10552709;27;20040;-76
2023/08/06 11:48:01;;;;;;;0.43;0.30;;;;;;;;;;10562976;27;20119;-77
2023/08/06 11:53:04;;;;;;;;;;;;;;;;;;10561695;27;20513;-76
2023/08/06 11:58:10;;;;;;;0.73;0.38;;;;;;;;;;10558177;27;19938;-75
2023/08/06 12:03:12;;;;;;;0.28;0.25;;;;;;;;;;10572619;27;20154;-77
2023/08/06 12:08:16;;;;;;;0.88;0.30;;;;;;;;;;10559044;27;20047;-76
2023/08/06 12:13:20;;;;;;;0.90;0.20;;;;;;;;;;10567329;27;20046;-76
2023/08/06 12:18:23;;;;;;;0.70;0.70;;;;;;;;;;10565582;28;20439;-76
2023/08/06 12:23:26;;;;;;;0.30;0.30;;;;;;;;;;10560927;28;20088;-76
2023/08/06 12:28:30;;;;;;;0.28;0.28;;;;;;;;;;10560432;28;20042;-77
2023/08/06 12:33:33;;;;;;;0.82;0.20;;;;;;;;;;10553641;28;20046;-76
2023/08/06 12:38:36;;;;;;;1.55;0.35;;;;;;;;;;10557104;28;20078;-74
2023/08/06 12:43:40;;;;;;;0.30;0.30;;;;;;;;;;10554840;28;20272;-76
2023/08/06 12:48:43;;;;;;;0.30;0.30;;;;;;;;;;10554194;28;20105;-76
2023/08/06 12:53:46;;;;;;;0.30;0.30;;;;;;;;;;10559551;27;20051;-76
2023/08/06 12:58:50;;;;;;;0.40;0.40;;;;;;;;;;10559779;27;20123;-76
2023/08/06 13:03:53;;;;;;;0.50;0.50;;;;;;;;;;10575339;27;20498;-75
2023/08/06 13:09:13;;;;;;;0.30;0.30;;;;;;;;;;10568644;27;20048;-76
2023/08/06 13:14:18;;;;;;;0.80;0.80;;;;;;;;;;10583400;27;20043;-77
2023/08/06 13:19:20;;;;;;;0.65;0.65;;;;;;;;;;10594476;27;20038;-77
2023/08/06 13:24:23;;;;;;;0.22;0.22;;;;;;;;;;10587627;27;20039;-77
2023/08/06 13:29:27;;;;;;;0.20;0.20;;;;;;;;;;10586154;27;20145;-77
2023/08/06 13:34:31;;;;;;;1.17;0.30;;;;;;;;;;10577183;27;20660;-76
2023/08/06 13:39:34;;;;;;;0.40;0.40;;;;;;;;;;10582239;27;20122;-76
2023/08/06 13:44:38;;;;;;;0.20;0.20;;;;;;;;;;10569702;27;20099;-76
2023/08/06 13:49:41;;;;;;;0.55;0.30;;;;;;;;;;10583691;27;20027;-76
2023/08/06 13:54:44;;;;;;;0.43;0.20;;;;;;;;;;10575614;27;20051;-75
2023/08/06 13:59:48;;;;;;;0.63;0.33;;;;;;;;;;10586272;27;20039;-75
2023/08/06 14:04:51;;;;;;;0.32;0.32;;;;;;;;;;10579096;27;20040;-75
2023/08/06 14:09:53;;;;;;;0.40;0.40;;;;;;;;;;10582630;27;20123;-76
2023/08/06 14:14:57;;;;;;;0.33;0.20;;;;;;;;;;10582286;27;20541;-76
2023/08/06 14:20:00;;;;;;;2.38;0.55;;;;;;;;;;10586992;27;20106;-75
2023/08/06 14:25:04;;;;;;;0.20;0.20;;;;;;;;;;10580044;27;20405;-73
2023/08/06 14:30:09;;;;;;;0.32;0.30;;;;;;;;;;10577623;27;20036;-75
2023/08/06 14:35:11;;;;;;;0.68;0.30;;;;;;;;;;10580695;27;20545;-76
2023/08/06 14:40:14;;;;;;;0.40;0.40;;;;;;;;;;10578615;27;20094;-75
2023/08/06 14:45:19;;;;;;;0.80;0.50;;;;;;;;;;10567164;27;20122;-76
2023/08/06 14:50:22;;;;;;;0.63;0.32;;;;;;;;;;10564510;27;20042;-76
2023/08/06 14:55:25;;;;;;;1.95;0.47;;;;;;;;;;10572695;27;20176;-75
2023/08/06 15:00:29;;;;;;;0.57;0.45;;;;;;;;;;10585933;27;20087;-75
2023/08/06 15:05:32;;;;;;;0.30;0.20;;;;;;;;;;10566433;27;20044;-75
2023/08/06 15:10:35;;;;;;;0.40;0.40;;;;;;;;;;10578193;27;20036;-75
2023/08/06 15:15:42;;;;;;;0.40;0.35;;;;;;;;;;10570690;27;20047;-75
2023/08/06 15:20:45;;;;;;;0.20;0.20;;;;;;;;;;10574224;27;20050;-77
2023/08/06 15:25:48;;;;;;;1.13;0.53;;;;;;;;;;10566040;27;20381;-76
2023/08/06 15:30:52;;;;;;;0.30;0.30;;;;;;;;;;10571336;27;20509;-77
2023/08/06 15:35:55;;;;;;;0.90;0.20;;;;;;;;;;10561544;27;20043;-76
2023/08/06 15:40:58;;;;;;;0.47;0.38;;;;;;;;;;10568746;27;20123;-75
2023/08/06 15:46:02;;;;;;;0.30;0.30;;;;;;;;;;10564040;27;20447;-75
2023/08/06 15:51:05;;;;;;;1.17;0.38;;;;;;;;;;10564781;27;20453;-77
2023/08/06 15:56:09;;;;;;;2.27;0.30;;;;;;;;;;10554164;27;20054;-77
2023/08/06 16:01:14;;;;;;;0.90;0.47;;;;;;;;;;10553159;27;20304;-76
2023/08/06 16:06:17;;;;;;;1.45;0.50;;;;;;;;;;10559257;27;20079;-77
2023/08/06 16:11:19;;;;;;;0.57;0.28;;;;;;;;;;10556611;27;20049;-75
2023/08/06 16:16:24;;;;;;;0.43;0.40;;;;;;;;;;10553950;27;20036;-77
2023/08/06 16:21:27;;;;;;;1.10;0.40;;;;;;;;;;10554612;28;20116;-77
2023/08/06 16:26:30;;;;;;;0.90;0.70;;;;;;;;;;10557779;27;20051;-77
2023/08/06 16:31:34;;;;;;;2.00;0.50;;;;;;;;;;10573165;27;20270;-77
2023/08/06 16:36:39;;;;;;;1.17;0.40;;;;;;;;;;10571121;27;20138;-77
2023/08/06 16:41:41;;;;;;;2.28;0.20;;;;;;;;;;10572518;27;20047;-78
2023/08/06 16:46:46;;;;;;;0.43;0.40;;;;;;;;;;10539250;27;20074;-77
2023/08/06 16:51:49;;;;;;;0.47;0.47;;;;;;;;;;10560925;27;20039;-77
2023/08/06 16:56:52;;;;;;;4.50;2.10;;;;;;;;;;10563808;27;20447;-78
2023/08/06 17:01:56;;;;;;;0.87;0.60;;;;;;;;;;10574099;27;20039;-77
2023/08/06 17:06:59;;;;;;;1.42;0.73;;;;;;;;;;10563309;27;20122;-78
2023/08/06 17:12:01;;;;;;;1.20;0.85;;;;;;;;;;10578084;27;20553;-79
2023/08/06 17:17:06;;;;;;;0.63;0.63;;;;;;;;;;10568330;27;20505;-79
2023/08/06 17:22:09;;;;;;;0.73;0.60;;;;;;;;;;10564096;27;20031;-77
2023/08/06 17:27:12;;;;;;;1.00;0.50;;;;;;;;;;10568782;27;20586;-78
2023/08/06 17:32:17;;;;;;;1.05;0.70;;;;;;;;;;10569434;27;20055;-77
2023/08/06 17:37:20;;;;;;;3.08;0.60;;;;;;;;;;10557688;27;20031;-78
2023/08/06 17:42:22;;;;;;;1.27;0.65;;;;;;;;;;10568512;27;20071;-78
2023/08/06 17:47:27;;;;;;;1.33;0.90;;;;;;;;;;10574306;27;20040;-78
2023/08/06 17:52:39;;;;;;;0.63;0.50;;;;;;;;;;10570557;27;20059;-78
2023/08/06 17:57:41;;;;;;;1.52;0.60;;;;;;;;;;10561992;27;20456;-77
2023/08/06 18:02:46;;;;;;;1.37;0.70;;;;;;;;;;10572573;27;20116;-77
2023/08/06 18:07:49;;;;;;;2.40;0.70;;;;;;;;;;10559193;27;20082;-77
2023/08/06 18:12:51;;;;;;;0.55;0.55;;;;;;;;;;10563597;27;20045;-76
2023/08/06 18:17:56;;;;;;;0.57;0.57;;;;;;;;;;10568868;27;20138;-77
2023/08/06 18:22:59;;;;;;;0.80;0.70;;;;;;;;;;10567323;27;20153;-77
2023/08/06 18:28:01;;;;;;;0.20;0.20;;;;;;;;;;10559311;27;20108;-77
2023/08/06 18:33:06;;;;;;;0.45;0.28;;;;;;;;;;10571891;27;20065;-77
2023/08/06 18:38:09;;;;;;;1.13;0.75;;;;;;;;;;10558215;27;20068;-77
2023/08/06 18:43:12;;;;;;;0.80;0.80;;;;;;;;;;10565185;27;20243;-78
2023/08/06 18:48:16;;;;;;;3.27;0.90;;;;;;;;;;10566535;27;20035;-78
2023/08/06 18:53:19;;;;;;;1.88;0.70;;;;;;;;;;10560573;27;20491;-77
2023/08/06 18:58:22;;;;;;;1.23;0.90;;;;;;;;;;10574088;27;20074;-77
2023/08/06 19:03:27;;;;;;;0.93;0.90;;;;;;;;;;10568592;27;20565;-77
2023/08/06 19:08:31;;;;;;;1.00;0.68;;;;;;;;;;10560911;27;20040;-78
2023/08/06 19:13:34;;;;;;;0.85;0.50;;;;;;;;;;10561700;27;20448;-77
2023/08/06 19:18:38;;;;;;;1.20;0.93;;;;;;;;;;10560356;27;20366;-78
2023/08/06 19:23:41;;;;;;;1.67;0.80;;;;;;;;;;10557950;27;20335;-77
2023/08/06 19:28:45;;;;;;;1.88;1.00;;;;;;;;;;10567411;27;20432;-78
2023/08/06 19:33:49;;;;;;;1.58;0.98;;;;;;;;;;10557174;27;20052;-78
2023/08/06 19:38:52;;;;;;;1.08;0.88;;;;;;;;;;10570154;27;20112;-78
2023/08/06 19:43:55;;;;;;;1.07;0.70;;;;;;;;;;10599538;27;20049;-76
2023/08/06 19:49:01;;;;;;;2.50;0.93;;;;;;;;;;10609893;28;20151;-76
2023/08/06 19:54:04;;;;;;;1.67;0.80;;;;;;;;;;10604216;27;20039;-77
2023/08/06 19:59:08;;;;;;;0.70;0.50;;;;;;;;;;10617049;27;20046;-76
2023/08/06 20:04:12;;;;;;;0.93;0.77;;;;;;;;;;10598323;27;20294;-76
2023/08/06 20:09:15;;;;;;;0.65;0.50;;;;;;;;;;10592440;27;20184;-77
2023/08/06 20:14:18;;;;;;;1.05;0.60;;;;;;;;;;10596163;27;20051;-77
2023/08/06 20:19:22;;;;;;;1.30;0.80;;;;;;;;;;10593011;28;20028;-76
2023/08/06 20:24:25;;;;;;;1.67;0.90;;;;;;;;;;10572188;28;20112;-77
2023/08/06 20:29:28;;;;;;;3.33;1.85;;;;;;;;;;10549274;28;20116;-77
2023/08/06 20:34:32;;;;;;;3.20;0.90;;;;;;;;;;10577359;28;20060;-77
2023/08/06 20:39:36;;;;;;;1.92;1.05;;;;;;;;;;10571182;28;20466;-75
2023/08/06 20:44:38;;;;;;;;;;;;;;;;;;10575363;28;20150;-77
2023/08/06 20:49:43;;;;;;;4.82;1.02;;;;;;;;;;10563315;28;20103;-77
2023/08/06 20:54:46;;;;;;;2.08;0.95;;;;;;;;;;10574399;28;20053;-75
2023/08/06 20:59:49;;;;;;;2.40;0.70;;;;;;;;;;10573261;28;20046;-77
2023/08/06 21:04:53;;;;;;;1.47;0.90;;;;;;;;;;10571114;28;20048;-75
2023/08/06 21:09:56;;;;;;;0.38;0.38;;;;;;;;;;10573951;28;20038;-76
2023/08/06 21:14:59;;;;;;;1.88;0.85;;;;;;;;;;10569231;27;20082;-77
2023/08/06 21:20:04;;;;;;;1.87;0.90;;;;;;;;;;10572046;27;20122;-75
2023/08/06 21:25:07;;;;;;;0.70;0.70;;;;;;;;;;10567975;27;20043;-75
2023/08/06 21:30:12;;;;;;;2.42;0.75;;;;;;;;;;10573591;27;20555;-77
2023/08/06 21:35:16;;;;;;;1.52;0.70;;;;;;;;;;10564531;27;20074;-78
2023/08/06 21:40:19;;;;;;;1.70;0.85;;;;;;;;;;10570919;27;20517;-77
2023/08/06 21:45:22;;;;;;;1.13;0.90;;;;;;;;;;10575587;27;20094;-78
2023/08/06 21:50:27;;;;;;;1.23;0.80;;;;;;;;;;10583168;27;20176;-77
2023/08/06 21:55:30;;;;;;;3.17;1.10;;;;;;;;;;10574593;27;20791;-77
2023/08/06 22:00:34;;;;;;;1.98;0.90;;;;;;;;;;10576811;27;20070;-77
2023/08/06 22:05:38;;;;;;;2.28;1.00;;;;;;;;;;10591868;27;20371;-77
2023/08/06 22:10:41;;;;;;;1.38;0.75;;;;;;;;;;10598173;27;20616;-78
2023/08/06 22:15:44;;;;;;;1.90;1.13;;;;;;;;;;10591176;27;20036;-79
2023/08/06 22:20:49;;;;;;;1.27;0.80;;;;;;;;;;10596773;27;20402;-79
2023/08/06 22:25:52;;;;;;;3.25;0.70;;;;;;;;;;10590372;27;20058;-79
2023/08/06 22:30:55;;;;;;;0.97;0.83;;;;;;;;;;10570678;27;20039;-79
2023/08/06 22:35:59;;;;;;;1.30;0.93;;;;;;;;;;10580485;27;20035;-77
2023/08/06 22:41:01;;;;;;;;;;;;;;;;;;10577992;27;20475;-77
2023/08/06 22:46:04;;;;;;;0.80;0.68;;;;;;;;;;10566115;27;19919;-76
2023/08/06 22:51:08;;;;;;;1.00;0.80;;;;;;;;;;10566250;27;20043;-76
2023/08/06 22:56:11;;;;;;;0.80;0.57;;;;;;;;;;10563240;27;20044;-76
2023/08/06 23:01:14;;;;;;;1.27;0.70;;;;;;;;;;10566507;27;20073;-75
2023/08/06 23:06:19;;;;;;;1.60;0.83;;;;;;;;;;10566317;27;20070;-75
2023/08/06 23:11:22;;;;;;;0.90;0.73;;;;;;;;;;10587162;27;20121;-75
2023/08/06 23:16:26;;;;;;;1.13;0.90;;;;;;;;;;10568639;27;20123;-77
2023/08/06 23:21:30;;;;;;;1.87;0.90;;;;;;;;;;10581261;27;20803;-76
2023/08/06 23:26:32;;;;;;;3.10;0.77;;;;;;;;;;10574812;27;20050;-76
2023/08/06 23:31:35;;;;;;;2.53;0.85;;;;;;;;;;10572978;27;20601;-76
2023/08/06 23:36:39;;;;;;;2.95;0.88;;;;;;;;;;10557078;27;20054;-76
2023/08/06 23:41:42;;;;;;;2.13;0.98;;;;;;;;;;10524461;27;20063;-76
2023/08/06 23:46:45;;;;;;;1.47;0.60;;;;;;;;;;10576477;27;20078;-77
2023/08/06 23:51:49;;;;;;;2.38;0.77;;;;;;;;;;10558303;27;20676;-76
2023/08/06 23:56:52;;;;;;;1.17;0.60;;;;;;;;;;10572287;27;20401;-77
